sensor_id;sensor_type;location;lat;lon;timestamp;P1;durP1;ratioP1;P2;durP2;ratioP2
32451;SDS011;45528;52.102;5.242;2023-04-06T00:00:58;18.3;;;11.8;;
32451;SDS011;45528;52.102;5.242;2023-04-06T00:04:11;18.8;;;11.3;;
32451;SDS011;45528;52.102;5.242;2023-04-06T00:05:47;17.3;;;11.3;;
32451;SDS011;45528;52.102;5.242;2023-04-06T00:07:24;18.41;;;10.9;;
32451;SDS011;45528;52.102;5.242;2023-04-06T00:09:00;20.9;;;10.9;;
32451;SDS011;45528;52.102;5.242;2023-04-06T00:12:13;17.5;;;10.8;;
32451;SDS011;45528;52.102;5.242;2023-04-06T00:13:49;18.8;;;12.0;;
32451;SDS011;45528;52.102;5.242;2023-04-06T00:15:25;18.8;;;12.0;;
32451;SDS011;45528;52.102;5.242;2023-04-06T00:18:38;19.0;;;11.4;;
32451;SDS011;45528;52.102;5.242;2023-04-06T00:20:15;17.11;;;11.5;;
32451;SDS011;45528;52.102;5.242;2023-04-06T00:21:51;19.3;;;11.9;;
32451;SDS011;45528;52.102;5.242;2023-04-06T00:25:04;18.2;;;11.1;;
32451;SDS011;45528;52.102;5.242;2023-04-06T00:26:41;19.8;;;11.0;;
32451;SDS011;45528;52.102;5.242;2023-04-06T00:28:17;19.0;;;10.9;;
32451;SDS011;45528;52.102;5.242;2023-04-06T00:29:53;19.41;;;11.8;;
32451;SDS011;45528;52.102;5.242;2023-04-06T00:33:06;19.41;;;11.0;;
32451;SDS011;45528;52.102;5.242;2023-04-06T00:34:42;19.91;;;11.6;;
32451;SDS011;45528;52.102;5.242;2023-04-06T00:36:18;19.3;;;11.0;;
32451;SDS011;45528;52.102;5.242;2023-04-06T00:39:30;19.2;;;11.6;;
32451;SDS011;45528;52.102;5.242;2023-04-06T00:41:06;16.9;;;10.5;;
32451;SDS011;45528;52.102;5.242;2023-04-06T00:42:42;17.91;;;10.9;;
32451;SDS011;45528;52.102;5.242;2023-04-06T00:45:56;20.11;;;11.0;;
32451;SDS011;45528;52.102;5.242;2023-04-06T00:47:32;17.5;;;10.9;;
32451;SDS011;45528;52.102;5.242;2023-04-06T00:49:09;16.5;;;10.8;;
32451;SDS011;45528;52.102;5.242;2023-04-06T00:50:45;19.41;;;11.4;;
32451;SDS011;45528;52.102;5.242;2023-04-06T00:53:58;18.2;;;11.1;;
32451;SDS011;45528;52.102;5.242;2023-04-06T00:55:34;18.7;;;11.2;;
32451;SDS011;45528;52.102;5.242;2023-04-06T00:57:11;18.8;;;11.5;;
32451;SDS011;45528;52.102;5.242;2023-04-06T01:00:24;18.2;;;11.2;;
32451;SDS011;45528;52.102;5.242;2023-04-06T01:02:00;17.5;;;10.9;;
32451;SDS011;45528;52.102;5.242;2023-04-06T01:03:36;15.8;;;10.5;;
32451;SDS011;45528;52.102;5.242;2023-04-06T01:06:48;19.61;;;11.2;;
32451;SDS011;45528;52.102;5.242;2023-04-06T01:08:24;19.11;;;11.1;;
32451;SDS011;45528;52.102;5.242;2023-04-06T01:10:03;18.7;;;11.2;;
32451;SDS011;45528;52.102;5.242;2023-04-06T01:11:40;16.9;;;10.8;;
32451;SDS011;45528;52.102;5.242;2023-04-06T01:14:52;18.7;;;11.2;;
32451;SDS011;45528;52.102;5.242;2023-04-06T01:16:28;18.2;;;11.3;;
32451;SDS011;45528;52.102;5.242;2023-04-06T01:18:04;16.5;;;11.1;;
32451;SDS011;45528;52.102;5.242;2023-04-06T01:21:16;17.3;;;11.4;;
32451;SDS011;45528;52.102;5.242;2023-04-06T01:22:53;16.7;;;11.1;;
32451;SDS011;45528;52.102;5.242;2023-04-06T01:24:29;18.2;;;11.8;;
32451;SDS011;45528;52.102;5.242;2023-04-06T01:27:41;16.9;;;11.6;;
32451;SDS011;45528;52.102;5.242;2023-04-06T01:29:17;16.7;;;11.1;;
32451;SDS011;45528;52.102;5.242;2023-04-06T01:30:53;19.7;;;12.1;;
32451;SDS011;45528;52.102;5.242;2023-04-06T01:34:06;17.8;;;11.6;;
32451;SDS011;45528;52.102;5.242;2023-04-06T01:35:42;17.0;;;11.2;;
32451;SDS011;45528;52.102;5.242;2023-04-06T01:37:18;16.61;;;11.0;;
32451;SDS011;45528;52.102;5.242;2023-04-06T01:38:54;18.8;;;11.3;;
32451;SDS011;45528;52.102;5.242;2023-04-06T01:42:06;17.41;;;11.4;;
32451;SDS011;45528;52.102;5.242;2023-04-06T01:43:43;17.91;;;11.1;;
32451;SDS011;45528;52.102;5.242;2023-04-06T01:45:19;18.7;;;11.4;;
32451;SDS011;45528;52.102;5.242;2023-04-06T01:48:31;15.6;;;11.1;;
32451;SDS011;45528;52.102;5.242;2023-04-06T01:50:07;18.11;;;10.7;;
32451;SDS011;45528;52.102;5.242;2023-04-06T01:51:43;15.8;;;11.6;;
32451;SDS011;45528;52.102;5.242;2023-04-06T01:54:55;18.61;;;11.3;;
32451;SDS011;45528;52.102;5.242;2023-04-06T01:56:32;16.3;;;11.0;;
32451;SDS011;45528;52.102;5.242;2023-04-06T01:58:08;16.8;;;11.0;;
32451;SDS011;45528;52.102;5.242;2023-04-06T02:01:20;16.11;;;10.8;;
32451;SDS011;45528;52.102;5.242;2023-04-06T02:02:56;16.11;;;10.21;;
32451;SDS011;45528;52.102;5.242;2023-04-06T02:04:32;16.2;;;11.0;;
32451;SDS011;45528;52.102;5.242;2023-04-06T02:06:08;15.6;;;10.7;;
32451;SDS011;45528;52.102;5.242;2023-04-06T02:09:21;16.11;;;10.4;;
32451;SDS011;45528;52.102;5.242;2023-04-06T02:10:57;16.9;;;10.1;;
32451;SDS011;45528;52.102;5.242;2023-04-06T02:12:33;18.11;;;10.8;;
32451;SDS011;45528;52.102;5.242;2023-04-06T02:15:45;17.11;;;11.1;;
32451;SDS011;45528;52.102;5.242;2023-04-06T02:17:21;17.41;;;10.5;;
32451;SDS011;45528;52.102;5.242;2023-04-06T02:18:58;15.9;;;10.4;;
32451;SDS011;45528;52.102;5.242;2023-04-06T02:22:10;16.0;;;10.7;;
32451;SDS011;45528;52.102;5.242;2023-04-06T02:23:46;17.61;;;10.3;;
32451;SDS011;45528;52.102;5.242;2023-04-06T02:25:22;14.6;;;10.21;;
32451;SDS011;45528;52.102;5.242;2023-04-06T02:26:58;15.3;;;10.0;;
32451;SDS011;45528;52.102;5.242;2023-04-06T02:30:12;13.9;;;9.81;;
32451;SDS011;45528;52.102;5.242;2023-04-06T02:31:48;17.8;;;10.7;;
32451;SDS011;45528;52.102;5.242;2023-04-06T02:33:24;15.8;;;10.7;;
32451;SDS011;45528;52.102;5.242;2023-04-06T02:36:37;16.61;;;10.3;;
32451;SDS011;45528;52.102;5.242;2023-04-06T02:38:13;14.7;;;10.0;;
32451;SDS011;45528;52.102;5.242;2023-04-06T02:39:50;17.11;;;10.1;;
32451;SDS011;45528;52.102;5.242;2023-04-06T02:43:02;16.9;;;10.21;;
32451;SDS011;45528;52.102;5.242;2023-04-06T02:44:38;13.8;;;10.1;;
32451;SDS011;45528;52.102;5.242;2023-04-06T02:46:14;19.2;;;10.4;;
32451;SDS011;45528;52.102;5.242;2023-04-06T02:49:26;16.0;;;10.4;;
32451;SDS011;45528;52.102;5.242;2023-04-06T02:51:03;16.4;;;10.4;;
32451;SDS011;45528;52.102;5.242;2023-04-06T02:52:39;18.61;;;10.9;;
32451;SDS011;45528;52.102;5.242;2023-04-06T02:54:15;16.11;;;10.4;;
32451;SDS011;45528;52.102;5.242;2023-04-06T02:57:27;15.0;;;9.9;;
32451;SDS011;45528;52.102;5.242;2023-04-06T02:59:03;14.9;;;9.9;;
32451;SDS011;45528;52.102;5.242;2023-04-06T03:00:39;16.11;;;10.3;;
32451;SDS011;45528;52.102;5.242;2023-04-06T03:03:52;15.3;;;9.6;;
32451;SDS011;45528;52.102;5.242;2023-04-06T03:05:28;16.9;;;10.7;;
32451;SDS011;45528;52.102;5.242;2023-04-06T03:07:04;17.2;;;10.5;;
32451;SDS011;45528;52.102;5.242;2023-04-06T03:10:16;16.61;;;10.3;;
32451;SDS011;45528;52.102;5.242;2023-04-06T03:11:52;17.0;;;10.7;;
32451;SDS011;45528;52.102;5.242;2023-04-06T03:13:28;14.9;;;10.7;;
32451;SDS011;45528;52.102;5.242;2023-04-06T03:16:42;17.91;;;11.2;;
32451;SDS011;45528;52.102;5.242;2023-04-06T03:18:20;17.11;;;10.8;;
32451;SDS011;45528;52.102;5.242;2023-04-06T03:19:57;17.3;;;10.6;;
32451;SDS011;45528;52.102;5.242;2023-04-06T03:21:33;17.7;;;10.7;;
32451;SDS011;45528;52.102;5.242;2023-04-06T03:24:45;18.2;;;10.8;;
32451;SDS011;45528;52.102;5.242;2023-04-06T03:26:22;18.61;;;11.6;;
32451;SDS011;45528;52.102;5.242;2023-04-06T03:27:58;15.9;;;10.7;;
32451;SDS011;45528;52.102;5.242;2023-04-06T03:31:10;18.41;;;11.1;;
32451;SDS011;45528;52.102;5.242;2023-04-06T03:32:46;18.41;;;11.3;;
32451;SDS011;45528;52.102;5.242;2023-04-06T03:34:22;17.0;;;11.0;;
32451;SDS011;45528;52.102;5.242;2023-04-06T03:37:35;18.11;;;11.3;;
32451;SDS011;45528;52.102;5.242;2023-04-06T03:39:11;18.2;;;12.1;;
32451;SDS011;45528;52.102;5.242;2023-04-06T03:40:48;21.2;;;11.3;;
32451;SDS011;45528;52.102;5.242;2023-04-06T03:42:24;16.61;;;11.4;;
32451;SDS011;45528;52.102;5.242;2023-04-06T03:45:36;17.3;;;11.4;;
32451;SDS011;45528;52.102;5.242;2023-04-06T03:47:12;19.91;;;12.2;;
32451;SDS011;45528;52.102;5.242;2023-04-06T03:48:49;21.1;;;12.4;;
32451;SDS011;45528;52.102;5.242;2023-04-06T03:52:01;21.0;;;12.3;;
32451;SDS011;45528;52.102;5.242;2023-04-06T03:53:37;17.41;;;11.7;;
32451;SDS011;45528;52.102;5.242;2023-04-06T03:55:13;20.9;;;12.1;;
32451;SDS011;45528;52.102;5.242;2023-04-06T03:58:25;20.3;;;12.0;;
32451;SDS011;45528;52.102;5.242;2023-04-06T04:00:01;18.5;;;12.1;;
32451;SDS011;45528;52.102;5.242;2023-04-06T04:01:37;19.7;;;12.3;;
32451;SDS011;45528;52.102;5.242;2023-04-06T04:03:13;18.91;;;12.4;;
32451;SDS011;45528;52.102;5.242;2023-04-06T04:06:25;17.3;;;11.8;;
32451;SDS011;45528;52.102;5.242;2023-04-06T04:08:01;21.3;;;12.6;;
32451;SDS011;45528;52.102;5.242;2023-04-06T04:09:37;21.7;;;12.5;;
32451;SDS011;45528;52.102;5.242;2023-04-06T04:12:50;21.3;;;12.9;;
32451;SDS011;45528;52.102;5.242;2023-04-06T04:14:26;20.0;;;13.1;;
32451;SDS011;45528;52.102;5.242;2023-04-06T04:16:02;20.3;;;13.1;;
32451;SDS011;45528;52.102;5.242;2023-04-06T04:19:15;19.2;;;11.9;;
32451;SDS011;45528;52.102;5.242;2023-04-06T04:20:51;21.2;;;13.8;;
32451;SDS011;45528;52.102;5.242;2023-04-06T04:22:27;21.1;;;12.6;;
32451;SDS011;45528;52.102;5.242;2023-04-06T04:25:40;20.9;;;13.3;;
32451;SDS011;45528;52.102;5.242;2023-04-06T04:32:14;21.9;;;12.2;;
32451;SDS011;45528;52.102;5.242;2023-04-06T04:33:50;22.5;;;13.5;;
32451;SDS011;45528;52.102;5.242;2023-04-06T04:35:27;20.7;;;13.2;;
32451;SDS011;45528;52.102;5.242;2023-04-06T04:37:03;19.7;;;13.1;;
32451;SDS011;45528;52.102;5.242;2023-04-06T04:40:15;19.7;;;13.1;;
32451;SDS011;45528;52.102;5.242;2023-04-06T04:41:52;19.8;;;12.4;;
32451;SDS011;45528;52.102;5.242;2023-04-06T04:43:29;19.8;;;12.7;;
32451;SDS011;45528;52.102;5.242;2023-04-06T04:45:05;24.6;;;13.2;;
32451;SDS011;45528;52.102;5.242;2023-04-06T04:48:18;18.61;;;12.6;;
32451;SDS011;45528;52.102;5.242;2023-04-06T04:49:54;19.0;;;12.6;;
32451;SDS011;45528;52.102;5.242;2023-04-06T04:51:30;20.2;;;13.1;;
32451;SDS011;45528;52.102;5.242;2023-04-06T04:54:43;21.5;;;13.6;;
32451;SDS011;45528;52.102;5.242;2023-04-06T04:56:19;24.7;;;13.9;;
32451;SDS011;45528;52.102;5.242;2023-04-06T04:57:55;22.0;;;13.3;;
32451;SDS011;45528;52.102;5.242;2023-04-06T05:01:11;23.5;;;13.2;;
32451;SDS011;45528;52.102;5.242;2023-04-06T05:02:47;22.2;;;13.7;;
32451;SDS011;45528;52.102;5.242;2023-04-06T05:04:24;20.8;;;13.9;;
32451;SDS011;45528;52.102;5.242;2023-04-06T05:05:59;19.91;;;13.4;;
32451;SDS011;45528;52.102;5.242;2023-04-06T05:09:13;22.1;;;14.3;;
32451;SDS011;45528;52.102;5.242;2023-04-06T05:10:49;21.1;;;13.8;;
32451;SDS011;45528;52.102;5.242;2023-04-06T05:12:26;26.0;;;15.5;;
32451;SDS011;45528;52.102;5.242;2023-04-06T05:17:15;23.7;;;14.1;;
32451;SDS011;45528;52.102;5.242;2023-04-06T05:18:52;21.0;;;14.2;;
32451;SDS011;45528;52.102;5.242;2023-04-06T05:22:05;21.6;;;14.5;;
32451;SDS011;45528;52.102;5.242;2023-04-06T05:23:41;23.7;;;14.3;;
32451;SDS011;45528;52.102;5.242;2023-04-06T05:25:19;20.0;;;13.8;;
32451;SDS011;45528;52.102;5.242;2023-04-06T05:26:55;23.1;;;14.3;;
32451;SDS011;45528;52.102;5.242;2023-04-06T05:30:08;25.8;;;15.2;;
32451;SDS011;45528;52.102;5.242;2023-04-06T05:31:45;25.2;;;15.9;;
32451;SDS011;45528;52.102;5.242;2023-04-06T05:33:22;24.5;;;15.2;;
32451;SDS011;45528;52.102;5.242;2023-04-06T05:36:36;23.3;;;15.0;;
32451;SDS011;45528;52.102;5.242;2023-04-06T05:38:12;21.6;;;14.5;;
32451;SDS011;45528;52.102;5.242;2023-04-06T05:39:48;22.9;;;15.3;;
32451;SDS011;45528;52.102;5.242;2023-04-06T05:43:01;25.3;;;14.6;;
32451;SDS011;45528;52.102;5.242;2023-04-06T05:44:37;24.8;;;16.11;;
32451;SDS011;45528;52.102;5.242;2023-04-06T05:46:14;23.5;;;15.4;;
32451;SDS011;45528;52.102;5.242;2023-04-06T05:49:27;25.4;;;15.3;;
32451;SDS011;45528;52.102;5.242;2023-04-06T05:51:03;23.9;;;15.8;;
32451;SDS011;45528;52.102;5.242;2023-04-06T05:52:40;22.1;;;15.2;;
32451;SDS011;45528;52.102;5.242;2023-04-06T05:54:17;23.4;;;15.5;;
32451;SDS011;45528;52.102;5.242;2023-04-06T05:57:29;24.7;;;16.5;;
32451;SDS011;45528;52.102;5.242;2023-04-06T05:59:05;24.3;;;16.11;;
32451;SDS011;45528;52.102;5.242;2023-04-06T06:00:42;24.6;;;15.8;;
32451;SDS011;45528;52.102;5.242;2023-04-06T06:03:57;24.5;;;16.3;;
32451;SDS011;45528;52.102;5.242;2023-04-06T06:05:33;29.7;;;17.3;;
32451;SDS011;45528;52.102;5.242;2023-04-06T06:07:10;24.4;;;16.4;;
32451;SDS011;45528;52.102;5.242;2023-04-06T06:08:46;24.6;;;17.2;;
32451;SDS011;45528;52.102;5.242;2023-04-06T06:11:59;27.0;;;16.4;;
32451;SDS011;45528;52.102;5.242;2023-04-06T06:13:35;26.9;;;17.11;;
32451;SDS011;45528;52.102;5.242;2023-04-06T06:15:12;29.0;;;17.2;;
32451;SDS011;45528;52.102;5.242;2023-04-06T06:18:24;28.9;;;17.2;;
32451;SDS011;45528;52.102;5.242;2023-04-06T06:20:00;27.3;;;17.91;;
32451;SDS011;45528;52.102;5.242;2023-04-06T06:21:36;22.4;;;15.8;;
32451;SDS011;45528;52.102;5.242;2023-04-06T06:24:50;26.0;;;16.3;;
32451;SDS011;45528;52.102;5.242;2023-04-06T06:26:26;28.8;;;17.3;;
32451;SDS011;45528;52.102;5.242;2023-04-06T06:28:02;28.2;;;17.5;;
32451;SDS011;45528;52.102;5.242;2023-04-06T06:31:14;27.2;;;17.7;;
32451;SDS011;45528;52.102;5.242;2023-04-06T06:32:51;27.8;;;17.7;;
32451;SDS011;45528;52.102;5.242;2023-04-06T06:34:27;29.6;;;17.41;;
32451;SDS011;45528;52.102;5.242;2023-04-06T06:36:04;28.9;;;17.8;;
32451;SDS011;45528;52.102;5.242;2023-04-06T06:39:16;30.5;;;18.2;;
32451;SDS011;45528;52.102;5.242;2023-04-06T06:40:52;27.5;;;17.61;;
32451;SDS011;45528;52.102;5.242;2023-04-06T06:42:28;32.5;;;18.61;;
32451;SDS011;45528;52.102;5.242;2023-04-06T06:45:41;27.2;;;18.11;;
32451;SDS011;45528;52.102;5.242;2023-04-06T06:47:17;27.7;;;17.91;;
32451;SDS011;45528;52.102;5.242;2023-04-06T06:48:54;26.9;;;17.8;;
32451;SDS011;45528;52.102;5.242;2023-04-06T06:52:06;27.7;;;18.11;;
32451;SDS011;45528;52.102;5.242;2023-04-06T06:53:42;29.8;;;19.11;;
32451;SDS011;45528;52.102;5.242;2023-04-06T06:55:18;29.9;;;18.8;;
32451;SDS011;45528;52.102;5.242;2023-04-06T06:56:54;29.2;;;18.2;;
32451;SDS011;45528;52.102;5.242;2023-04-06T07:00:07;28.6;;;18.11;;
32451;SDS011;45528;52.102;5.242;2023-04-06T07:01:45;30.4;;;19.11;;
32451;SDS011;45528;52.102;5.242;2023-04-06T07:03:21;29.7;;;18.7;;
32451;SDS011;45528;52.102;5.242;2023-04-06T07:06:33;30.0;;;18.8;;
32451;SDS011;45528;52.102;5.242;2023-04-06T07:08:11;32.6;;;18.61;;
32451;SDS011;45528;52.102;5.242;2023-04-06T07:09:47;29.8;;;18.7;;
32451;SDS011;45528;52.102;5.242;2023-04-06T07:13:00;34.21;;;19.2;;
32451;SDS011;45528;52.102;5.242;2023-04-06T07:14:36;33.1;;;19.3;;
32451;SDS011;45528;52.102;5.242;2023-04-06T07:16:12;28.5;;;18.0;;
32451;SDS011;45528;52.102;5.242;2023-04-06T07:17:48;31.0;;;19.2;;
32451;SDS011;45528;52.102;5.242;2023-04-06T07:21:00;28.1;;;18.91;;
32451;SDS011;45528;52.102;5.242;2023-04-06T07:22:37;29.8;;;19.0;;
32451;SDS011;45528;52.102;5.242;2023-04-06T07:24:14;31.7;;;18.91;;
32451;SDS011;45528;52.102;5.242;2023-04-06T07:27:26;28.8;;;18.91;;
32451;SDS011;45528;52.102;5.242;2023-04-06T07:29:02;35.81;;;19.91;;
32451;SDS011;45528;52.102;5.242;2023-04-06T07:30:38;28.9;;;18.8;;
32451;SDS011;45528;52.102;5.242;2023-04-06T07:33:51;33.21;;;19.61;;
32451;SDS011;45528;52.102;5.242;2023-04-06T07:35:28;27.1;;;18.11;;
32451;SDS011;45528;52.102;5.242;2023-04-06T07:37:04;33.6;;;20.11;;
32451;SDS011;45528;52.102;5.242;2023-04-06T07:40:16;31.4;;;20.11;;
32451;SDS011;45528;52.102;5.242;2023-04-06T07:41:52;31.0;;;19.0;;
32451;SDS011;45528;52.102;5.242;2023-04-06T07:43:28;29.4;;;19.41;;
32451;SDS011;45528;52.102;5.242;2023-04-06T07:45:05;29.9;;;19.11;;
32451;SDS011;45528;52.102;5.242;2023-04-06T07:48:18;31.8;;;19.8;;
32451;SDS011;45528;52.102;5.242;2023-04-06T07:49:54;29.2;;;19.91;;
32451;SDS011;45528;52.102;5.242;2023-04-06T07:51:30;30.1;;;19.5;;
32451;SDS011;45528;52.102;5.242;2023-04-06T07:54:44;30.0;;;19.61;;
32451;SDS011;45528;52.102;5.242;2023-04-06T07:56:20;35.6;;;19.8;;
32451;SDS011;45528;52.102;5.242;2023-04-06T07:57:56;30.4;;;19.3;;
32451;SDS011;45528;52.102;5.242;2023-04-06T08:01:09;30.7;;;19.3;;
32451;SDS011;45528;52.102;5.242;2023-04-06T08:02:45;31.5;;;19.5;;
32451;SDS011;45528;52.102;5.242;2023-04-06T08:04:21;30.3;;;20.11;;
32451;SDS011;45528;52.102;5.242;2023-04-06T08:05:57;30.1;;;20.3;;
32451;SDS011;45528;52.102;5.242;2023-04-06T08:09:09;31.2;;;19.91;;
32451;SDS011;45528;52.102;5.242;2023-04-06T08:10:45;35.1;;;20.3;;
32451;SDS011;45528;52.102;5.242;2023-04-06T08:12:21;30.5;;;19.3;;
32451;SDS011;45528;52.102;5.242;2023-04-06T08:15:33;30.9;;;20.6;;
32451;SDS011;45528;52.102;5.242;2023-04-06T08:17:09;34.31;;;20.2;;
32451;SDS011;45528;52.102;5.242;2023-04-06T08:18:45;34.1;;;20.41;;
32451;SDS011;45528;52.102;5.242;2023-04-06T08:21:58;32.4;;;20.9;;
32451;SDS011;45528;52.102;5.242;2023-04-06T08:23:34;33.6;;;20.0;;
32451;SDS011;45528;52.102;5.242;2023-04-06T08:25:10;34.5;;;20.2;;
32451;SDS011;45528;52.102;5.242;2023-04-06T08:28:21;34.71;;;21.0;;
32451;SDS011;45528;52.102;5.242;2023-04-06T08:29:57;31.6;;;20.41;;
32451;SDS011;45528;52.102;5.242;2023-04-06T08:31:33;34.31;;;20.5;;
32451;SDS011;45528;52.102;5.242;2023-04-06T08:33:10;34.9;;;22.0;;
32451;SDS011;45528;52.102;5.242;2023-04-06T08:36:22;34.1;;;21.8;;
32451;SDS011;45528;52.102;5.242;2023-04-06T08:37:58;33.0;;;21.0;;
32451;SDS011;45528;52.102;5.242;2023-04-06T08:39:34;34.21;;;21.4;;
32451;SDS011;45528;52.102;5.242;2023-04-06T08:42:49;33.9;;;21.6;;
32451;SDS011;45528;52.102;5.242;2023-04-06T08:44:30;34.21;;;21.8;;
32451;SDS011;45528;52.102;5.242;2023-04-06T08:46:07;36.9;;;22.5;;
32451;SDS011;45528;52.102;5.242;2023-04-06T08:49:22;34.31;;;21.5;;
32451;SDS011;45528;52.102;5.242;2023-04-06T08:50:58;35.31;;;21.1;;
32451;SDS011;45528;52.102;5.242;2023-04-06T08:52:34;36.31;;;22.4;;
32451;SDS011;45528;52.102;5.242;2023-04-06T08:54:12;36.0;;;21.8;;
32451;SDS011;45528;52.102;5.242;2023-04-06T08:57:26;34.81;;;21.4;;
32451;SDS011;45528;52.102;5.242;2023-04-06T08:59:03;38.4;;;22.5;;
32451;SDS011;45528;52.102;5.242;2023-04-06T09:00:40;38.0;;;22.2;;
32451;SDS011;45528;52.102;5.242;2023-04-06T09:03:55;31.6;;;20.6;;
32451;SDS011;45528;52.102;5.242;2023-04-06T09:05:33;36.81;;;22.2;;
32451;SDS011;45528;52.102;5.242;2023-04-06T09:07:10;36.9;;;22.1;;
32451;SDS011;45528;52.102;5.242;2023-04-06T09:08:47;37.4;;;22.1;;
32451;SDS011;45528;52.102;5.242;2023-04-06T09:11:59;33.21;;;21.2;;
32451;SDS011;45528;52.102;5.242;2023-04-06T09:13:44;37.31;;;21.7;;
32451;SDS011;45528;52.102;5.242;2023-04-06T09:15:21;34.4;;;21.1;;
32451;SDS011;45528;52.102;5.242;2023-04-06T09:18:33;32.9;;;21.4;;
32451;SDS011;45528;52.102;5.242;2023-04-06T09:20:10;35.9;;;22.0;;
32451;SDS011;45528;52.102;5.242;2023-04-06T09:21:47;32.3;;;20.9;;
32451;SDS011;45528;52.102;5.242;2023-04-06T09:23:23;36.1;;;21.7;;
32451;SDS011;45528;52.102;5.242;2023-04-06T09:26:50;33.5;;;21.6;;
32451;SDS011;45528;52.102;5.242;2023-04-06T09:28:26;35.1;;;21.8;;
32451;SDS011;45528;52.102;5.242;2023-04-06T09:30:03;33.6;;;22.0;;
32451;SDS011;45528;52.102;5.242;2023-04-06T09:33:21;35.71;;;22.9;;
32451;SDS011;45528;52.102;5.242;2023-04-06T09:35:06;35.21;;;22.7;;
32451;SDS011;45528;52.102;5.242;2023-04-06T09:36:43;38.9;;;23.1;;
32451;SDS011;45528;52.102;5.242;2023-04-06T09:38:19;40.21;;;23.5;;
32451;SDS011;45528;52.102;5.242;2023-04-06T09:41:39;38.31;;;23.8;;
32451;SDS011;45528;52.102;5.242;2023-04-06T09:43:22;38.1;;;24.1;;
32451;SDS011;45528;52.102;5.242;2023-04-06T09:44:59;38.6;;;23.9;;
32451;SDS011;45528;52.102;5.242;2023-04-06T09:46:36;41.6;;;24.4;;
32451;SDS011;45528;52.102;5.242;2023-04-06T09:49:55;40.1;;;25.4;;
32451;SDS011;45528;52.102;5.242;2023-04-06T09:51:38;41.6;;;25.3;;
32451;SDS011;45528;52.102;5.242;2023-04-06T09:53:15;43.8;;;25.8;;
32451;SDS011;45528;52.102;5.242;2023-04-06T09:54:55;41.9;;;24.7;;
32451;SDS011;45528;52.102;5.242;2023-04-06T09:58:21;39.71;;;25.7;;
32451;SDS011;45528;52.102;5.242;2023-04-06T10:00:01;44.9;;;26.3;;
32451;SDS011;45528;52.102;5.242;2023-04-06T10:01:40;43.4;;;26.2;;
32451;SDS011;45528;52.102;5.242;2023-04-06T10:03:18;43.4;;;26.8;;
32451;SDS011;45528;52.102;5.242;2023-04-06T10:06:48;39.0;;;23.7;;
32451;SDS011;45528;52.102;5.242;2023-04-06T10:08:24;40.71;;;22.8;;
32451;SDS011;45528;52.102;5.242;2023-04-06T10:10:03;39.0;;;23.2;;
32451;SDS011;45528;52.102;5.242;2023-04-06T10:11:40;38.71;;;22.8;;
32451;SDS011;45528;52.102;5.242;2023-04-06T10:14:56;38.81;;;23.3;;
32451;SDS011;45528;52.102;5.242;2023-04-06T10:16:32;35.5;;;22.5;;
32451;SDS011;45528;52.102;5.242;2023-04-06T10:18:08;37.0;;;20.7;;
32451;SDS011;45528;52.102;5.242;2023-04-06T10:21:39;34.5;;;18.91;;
32451;SDS011;45528;52.102;5.242;2023-04-06T10:23:20;28.9;;;17.91;;
32451;SDS011;45528;52.102;5.242;2023-04-06T10:25:05;28.5;;;16.3;;
32451;SDS011;45528;52.102;5.242;2023-04-06T10:26:43;26.4;;;14.7;;
32451;SDS011;45528;52.102;5.242;2023-04-06T10:28:34;18.41;;;11.9;;
32451;SDS011;45528;52.102;5.242;2023-04-06T10:31:51;18.5;;;11.9;;
32451;SDS011;45528;52.102;5.242;2023-04-06T10:33:27;19.2;;;11.7;;
32451;SDS011;45528;52.102;5.242;2023-04-06T10:35:05;17.41;;;11.4;;
32451;SDS011;45528;52.102;5.242;2023-04-06T10:36:43;20.9;;;11.7;;
32451;SDS011;45528;52.102;5.242;2023-04-06T10:39:55;19.5;;;11.6;;
32451;SDS011;45528;52.102;5.242;2023-04-06T10:41:32;19.0;;;11.1;;
32451;SDS011;45528;52.102;5.242;2023-04-06T10:43:09;15.4;;;9.4;;
32451;SDS011;45528;52.102;5.242;2023-04-06T10:46:25;13.1;;;8.5;;
32451;SDS011;45528;52.102;5.242;2023-04-06T10:48:20;12.7;;;7.6;;
32451;SDS011;45528;52.102;5.242;2023-04-06T10:49:56;12.0;;;6.9;;
32451;SDS011;45528;52.102;5.242;2023-04-06T10:51:32;10.3;;;6.3;;
32451;SDS011;45528;52.102;5.242;2023-04-06T10:54:58;8.0;;;5.5;;
32451;SDS011;45528;52.102;5.242;2023-04-06T10:56:36;9.81;;;6.0;;
32451;SDS011;45528;52.102;5.242;2023-04-06T10:58:13;9.71;;;5.2;;
32451;SDS011;45528;52.102;5.242;2023-04-06T10:59:52;7.5;;;4.8;;
32451;SDS011;45528;52.102;5.242;2023-04-06T11:03:04;7.1;;;4.5;;
32451;SDS011;45528;52.102;5.242;2023-04-06T11:04:41;8.81;;;4.61;;
32451;SDS011;45528;52.102;5.242;2023-04-06T11:06:18;6.7;;;4.5;;
32451;SDS011;45528;52.102;5.242;2023-04-06T11:09:31;7.6;;;4.7;;
32451;SDS011;45528;52.102;5.242;2023-04-06T11:11:08;7.6;;;4.7;;
32451;SDS011;45528;52.102;5.242;2023-04-06T11:12:45;7.7;;;5.2;;
32451;SDS011;45528;52.102;5.242;2023-04-06T11:14:28;8.4;;;5.6;;
32451;SDS011;45528;52.102;5.242;2023-04-06T11:17:40;10.3;;;5.8;;
32451;SDS011;45528;52.102;5.242;2023-04-06T11:19:16;11.5;;;6.3;;
32451;SDS011;45528;52.102;5.242;2023-04-06T11:20:53;10.1;;;6.4;;
32451;SDS011;45528;52.102;5.242;2023-04-06T11:24:07;10.3;;;6.7;;
32451;SDS011;45528;52.102;5.242;2023-04-06T11:25:49;9.9;;;6.6;;
32451;SDS011;45528;52.102;5.242;2023-04-06T11:27:26;11.7;;;6.8;;
32451;SDS011;45528;52.102;5.242;2023-04-06T11:29:03;12.9;;;7.4;;
32451;SDS011;45528;52.102;5.242;2023-04-06T11:32:20;9.6;;;6.8;;
32451;SDS011;45528;52.102;5.242;2023-04-06T11:33:57;10.6;;;6.7;;
32451;SDS011;45528;52.102;5.242;2023-04-06T11:35:33;10.8;;;7.0;;
32451;SDS011;45528;52.102;5.242;2023-04-06T11:38:47;11.4;;;6.9;;
32451;SDS011;45528;52.102;5.242;2023-04-06T11:40:24;10.21;;;6.5;;
32451;SDS011;45528;52.102;5.242;2023-04-06T11:42:00;10.5;;;6.1;;
32451;SDS011;45528;52.102;5.242;2023-04-06T11:43:37;9.0;;;6.0;;
32451;SDS011;45528;52.102;5.242;2023-04-06T11:46:51;11.0;;;6.6;;
32451;SDS011;45528;52.102;5.242;2023-04-06T11:48:27;12.7;;;6.5;;
32451;SDS011;45528;52.102;5.242;2023-04-06T11:50:05;11.0;;;7.1;;
32451;SDS011;45528;52.102;5.242;2023-04-06T11:53:19;12.0;;;6.9;;
32451;SDS011;45528;52.102;5.242;2023-04-06T11:54:55;11.4;;;7.2;;
32451;SDS011;45528;52.102;5.242;2023-04-06T11:56:31;15.5;;;7.8;;
32451;SDS011;45528;52.102;5.242;2023-04-06T11:59:43;11.8;;;7.6;;
32451;SDS011;45528;52.102;5.242;2023-04-06T12:01:20;12.5;;;8.2;;
32451;SDS011;45528;52.102;5.242;2023-04-06T12:02:56;12.5;;;8.71;;
32451;SDS011;45528;52.102;5.242;2023-04-06T12:04:33;12.6;;;8.6;;
32451;SDS011;45528;52.102;5.242;2023-04-06T12:07:45;12.5;;;8.9;;
32451;SDS011;45528;52.102;5.242;2023-04-06T12:09:21;14.6;;;9.6;;
32451;SDS011;45528;52.102;5.242;2023-04-06T12:10:57;15.3;;;10.0;;
32451;SDS011;45528;52.102;5.242;2023-04-06T12:14:10;14.7;;;10.4;;
32451;SDS011;45528;52.102;5.242;2023-04-06T12:15:46;18.8;;;10.3;;
32451;SDS011;45528;52.102;5.242;2023-04-06T12:17:22;15.6;;;10.21;;
32451;SDS011;45528;52.102;5.242;2023-04-06T12:20:35;15.6;;;10.21;;
32451;SDS011;45528;52.102;5.242;2023-04-06T12:22:11;19.3;;;11.2;;
32451;SDS011;45528;52.102;5.242;2023-04-06T12:23:47;16.7;;;11.4;;
32451;SDS011;45528;52.102;5.242;2023-04-06T12:25:23;17.41;;;11.8;;
32451;SDS011;45528;52.102;5.242;2023-04-06T12:28:35;15.3;;;11.4;;
32451;SDS011;45528;52.102;5.242;2023-04-06T12:30:12;19.2;;;11.1;;
32451;SDS011;45528;52.102;5.242;2023-04-06T12:31:48;17.91;;;11.6;;
32451;SDS011;45528;52.102;5.242;2023-04-06T12:35:00;16.2;;;11.8;;
32451;SDS011;45528;52.102;5.242;2023-04-06T12:36:36;20.11;;;12.7;;
32451;SDS011;45528;52.102;5.242;2023-04-06T12:38:13;17.5;;;12.0;;
32451;SDS011;45528;52.102;5.242;2023-04-06T12:41:26;17.11;;;11.7;;